createdAt,value
2024-03-01T00:01:45.164Z,6.70
2024-03-01T00:04:13.518Z,6.05
2024-03-01T00:06:43.763Z,7.25
2024-03-01T00:09:11.697Z,6.82
2024-03-01T00:11:39.769Z,6.18
2024-03-01T00:14:07.923Z,5.57
2024-03-01T00:16:35.839Z,7.05
2024-03-01T00:19:04.052Z,5.85
2024-03-01T00:21:31.959Z,6.57
2024-03-01T00:24:01.111Z,8.38
2024-03-01T00:26:29.260Z,6.55
2024-03-01T00:28:57.060Z,6.62
2024-03-01T00:31:25.064Z,6.55
2024-03-01T00:33:53.387Z,6.75
2024-03-01T00:36:21.428Z,7.37
2024-03-01T00:38:49.286Z,6.50
2024-03-01T00:41:18.788Z,6.00
2024-03-01T00:43:46.671Z,7.50
2024-03-01T00:46:14.681Z,7.20
2024-03-01T00:48:42.848Z,6.90
2024-03-01T00:51:10.718Z,5.93
2024-03-01T00:53:38.666Z,7.05
2024-03-01T00:56:07.396Z,6.90
2024-03-01T00:58:36.752Z,5.68
2024-03-01T01:01:04.968Z,6.97
2024-03-01T01:03:33.509Z,6.60
2024-03-01T01:06:01.811Z,6.68
2024-03-01T01:08:30.055Z,6.37
2024-03-01T01:11:03.814Z,6.93
2024-03-01T01:13:38.535Z,9.02
2024-03-01T01:16:07.803Z,7.50
2024-03-01T01:18:42.148Z,7.47
2024-03-01T01:21:10.614Z,6.72
2024-03-01T01:23:38.615Z,6.53
2024-03-01T01:26:06.497Z,7.62
2024-03-01T01:28:34.641Z,6.55
2024-03-01T01:31:03.905Z,7.15
2024-03-01T01:33:31.737Z,7.15
2024-03-01T01:35:59.843Z,6.35
2024-03-01T01:38:27.708Z,8.07
2024-03-01T01:40:55.589Z,7.22
2024-03-01T01:43:23.848Z,5.90
2024-03-01T01:45:51.784Z,7.55
2024-03-01T01:48:20.978Z,7.05
2024-03-01T01:50:49.188Z,6.93
2024-03-01T01:53:21.719Z,6.57
2024-03-01T01:55:55.567Z,7.82
2024-03-01T01:58:23.883Z,6.18
2024-03-01T02:00:52.418Z,7.72
2024-03-01T02:03:23.591Z,5.45
2024-03-01T02:05:52.021Z,5.68
2024-03-01T02:08:20.207Z,6.55
2024-03-01T02:10:50.307Z,6.22
2024-03-01T02:13:24.134Z,6.25
2024-03-01T02:15:52.862Z,6.22
2024-03-01T02:18:23.095Z,7.05
2024-03-01T02:20:58.957Z,6.40
2024-03-01T02:23:28.575Z,6.53
2024-03-01T02:25:56.865Z,6.22
2024-03-01T02:28:24.828Z,6.75
2024-03-01T02:30:53.405Z,5.62
2024-03-01T02:33:21.769Z,6.47
2024-03-01T02:35:49.731Z,5.60
2024-03-01T02:38:17.999Z,6.35
2024-03-01T02:40:47.222Z,6.90
2024-03-01T02:43:15.199Z,6.72
2024-03-01T02:45:43.362Z,5.57
2024-03-01T02:48:11.298Z,6.03
2024-03-01T02:50:39.237Z,7.45
2024-03-01T02:53:08.330Z,5.22
2024-03-01T02:55:36.321Z,5.55
2024-03-01T02:58:06.500Z,6.93
2024-03-01T03:00:35.267Z,6.55
2024-03-01T03:03:03.128Z,5.40
2024-03-01T03:05:31.034Z,7.65
2024-03-01T03:07:59.820Z,7.00
2024-03-01T03:10:28.152Z,5.75
2024-03-01T03:12:56.029Z,5.45
2024-03-01T03:15:26.258Z,5.72
2024-03-01T03:17:54.208Z,5.25
2024-03-01T03:20:22.778Z,5.60
2024-03-01T03:22:50.933Z,5.95
2024-03-01T03:25:18.864Z,6.03
2024-03-01T03:27:46.877Z,5.15
2024-03-01T03:30:15.210Z,6.22
2024-03-01T03:32:44.525Z,5.45
2024-03-01T03:35:12.693Z,5.65
2024-03-01T03:37:40.765Z,5.82
2024-03-01T03:40:15.764Z,5.95
2024-03-01T03:42:44.915Z,5.87
2024-03-01T03:45:13.317Z,5.05
2024-03-01T03:47:41.223Z,4.70
2024-03-01T03:50:11.194Z,6.18
2024-03-01T03:52:39.372Z,7.20
2024-03-01T03:55:08.251Z,6.05
2024-03-01T03:57:37.196Z,6.57
2024-03-01T04:00:09.818Z,6.80
2024-03-01T04:02:38.192Z,6.43
2024-03-01T04:05:07.889Z,5.80
2024-03-01T04:07:37.792Z,5.57
2024-03-01T04:10:07.518Z,6.15
2024-03-01T04:12:37.199Z,7.43
2024-03-01T04:15:06.793Z,6.20
2024-03-01T04:17:35.795Z,5.85
2024-03-01T04:20:05.382Z,5.82
2024-03-01T04:22:36.410Z,6.03
2024-03-01T04:25:07.172Z,6.30
2024-03-01T04:27:35.814Z,5.93
2024-03-01T04:30:03.879Z,5.65
2024-03-01T04:32:31.912Z,4.18
2024-03-01T04:35:00.257Z,4.93
2024-03-01T04:37:28.748Z,5.80
2024-03-01T04:39:56.828Z,5.53
2024-03-01T04:42:26.888Z,4.62
2024-03-01T04:44:54.838Z,5.43
2024-03-01T04:47:22.734Z,5.43
2024-03-01T04:49:51.111Z,5.10
2024-03-01T04:52:19.069Z,5.65
2024-03-01T04:54:48.562Z,7.45
2024-03-01T04:57:17.367Z,7.78
2024-03-01T04:59:46.613Z,6.43
2024-03-01T05:02:14.480Z,6.35
2024-03-01T05:04:44.726Z,5.87
2024-03-01T05:07:12.924Z,5.78
2024-03-01T05:09:44.168Z,7.00
2024-03-01T05:12:15.225Z,6.37
2024-03-01T05:14:43.269Z,6.95
2024-03-01T05:17:14.791Z,5.72
2024-03-01T05:19:43.019Z,6.43
2024-03-01T05:22:14.453Z,6.35
2024-03-01T05:24:42.907Z,5.60
2024-03-01T05:27:13.949Z,6.87
2024-03-01T05:29:42.393Z,6.62
2024-03-01T05:32:10.557Z,6.78
2024-03-01T05:34:40.154Z,6.32
2024-03-01T05:37:08.555Z,6.93
2024-03-01T05:39:36.505Z,8.02
2024-03-01T05:42:07.393Z,6.53
2024-03-01T05:44:35.601Z,6.35
2024-03-01T05:47:04.381Z,6.00
2024-03-01T05:49:32.327Z,5.50
2024-03-01T05:52:01.851Z,6.68
2024-03-01T05:54:30.879Z,6.45
2024-03-01T05:56:59.344Z,7.32
2024-03-01T05:59:27.528Z,6.93
2024-03-01T06:01:55.623Z,7.00
2024-03-01T06:04:23.858Z,5.68
2024-03-01T06:06:51.752Z,6.75
2024-03-01T06:09:21.377Z,5.72
2024-03-01T06:11:51.976Z,7.53
2024-03-01T06:14:20.163Z,6.62
2024-03-01T06:16:48.917Z,7.28
2024-03-01T06:19:18.329Z,5.78
2024-03-01T06:21:46.399Z,7.97
2024-03-01T06:24:15.351Z,7.62
2024-03-01T06:26:44.750Z,6.97
2024-03-01T06:29:12.640Z,5.93
2024-03-01T06:31:40.703Z,6.30
2024-03-01T06:34:08.939Z,6.57
2024-03-01T06:36:36.970Z,7.87
2024-03-01T06:39:05.146Z,6.68
2024-03-01T06:41:33.251Z,7.30
2024-03-01T06:44:02.706Z,7.60
2024-03-01T06:46:31.057Z,7.25
2024-03-01T06:49:00.219Z,6.70
2024-03-01T06:51:28.102Z,6.68
2024-03-01T06:53:55.970Z,8.13
2024-03-01T06:56:24.406Z,6.82
2024-03-01T06:58:52.346Z,6.43
2024-03-01T07:01:21.721Z,6.40
2024-03-01T07:03:49.932Z,7.37
2024-03-01T07:06:17.804Z,6.60
2024-03-01T07:08:45.668Z,7.32
2024-03-01T07:11:13.768Z,7.93
2024-03-01T07:13:41.645Z,6.37
2024-03-01T07:16:09.558Z,7.05
2024-03-01T07:18:39.111Z,8.45
2024-03-01T07:21:08.748Z,9.02
2024-03-01T07:23:37.464Z,7.43
2024-03-01T07:26:07.424Z,7.03
2024-03-01T07:28:36.152Z,7.32
2024-03-01T07:31:05.094Z,7.65
2024-03-01T07:33:33.380Z,8.85
2024-03-01T07:36:02.658Z,8.63
2024-03-01T07:38:30.540Z,7.60
2024-03-01T07:40:58.618Z,9.73
2024-03-01T07:43:26.640Z,8.27
2024-03-01T07:45:54.902Z,10.35
2024-03-01T07:48:23.075Z,7.72
2024-03-01T07:50:50.936Z,8.27
2024-03-01T07:53:20.145Z,9.88
2024-03-01T07:55:48.542Z,9.00
2024-03-01T07:58:16.794Z,9.88
2024-03-01T08:00:44.842Z,8.85
2024-03-01T08:03:13.159Z,8.80
2024-03-01T08:05:41.748Z,9.35
2024-03-01T08:08:11.122Z,7.97
2024-03-01T08:10:43.866Z,8.50
2024-03-01T08:13:12.903Z,8.85
2024-03-01T08:15:41.940Z,8.73
2024-03-01T08:18:18.918Z,9.15
2024-03-01T08:21:07.293Z,8.98
2024-03-01T08:23:39.571Z,9.32
2024-03-01T08:26:14.434Z,8.32
2024-03-01T08:28:45.525Z,9.55
2024-03-01T08:31:23.386Z,9.50
2024-03-01T08:33:59.663Z,9.15
2024-03-01T08:36:28.554Z,8.85
2024-03-01T08:39:12.554Z,9.77
2024-03-01T08:41:44.047Z,8.82
2024-03-01T08:44:51.138Z,8.90
2024-03-01T08:47:26.757Z,8.27
2024-03-01T08:50:25.055Z,8.10
2024-03-01T08:52:53.880Z,10.10
2024-03-01T08:55:42.122Z,11.23
2024-03-01T08:58:18.565Z,11.65
2024-03-01T09:00:49.945Z,11.23
2024-03-01T09:03:25.068Z,11.98
2024-03-01T09:05:56.392Z,12.23
2024-03-01T09:08:26.523Z,12.15
2024-03-01T09:10:56.771Z,12.90
2024-03-01T09:13:27.980Z,11.98
2024-03-01T09:15:58.209Z,13.45
2024-03-01T09:18:43.726Z,12.20
2024-03-01T09:21:45.241Z,11.55
2024-03-01T09:24:17.250Z,12.05
2024-03-01T09:26:46.188Z,11.65
2024-03-01T09:29:37.049Z,10.90
2024-03-01T09:32:06.538Z,10.35
2024-03-01T09:34:37.001Z,10.05
2024-03-01T09:37:07.739Z,10.38
2024-03-01T09:39:36.265Z,10.95
2024-03-01T09:42:38.080Z,10.73
2024-03-01T09:45:40.482Z,10.70
2024-03-01T09:48:28.926Z,11.00
2024-03-01T09:51:13.693Z,10.68
2024-03-01T09:54:02.741Z,10.52
2024-03-01T09:56:39.130Z,10.23
2024-03-01T09:59:15.210Z,11.18
2024-03-01T10:01:49.994Z,9.45
2024-03-01T10:04:32.186Z,10.70
2024-03-01T10:07:06.319Z,10.43
2024-03-01T10:09:51.647Z,9.77
2024-03-01T10:12:35.581Z,10.00
2024-03-01T10:15:05.360Z,9.85
2024-03-01T10:17:49.380Z,10.70
2024-03-01T10:20:26.419Z,10.27
2024-03-01T10:23:11.960Z,11.68
2024-03-01T10:25:48.907Z,10.15
2024-03-01T10:28:32.260Z,10.43
2024-03-01T10:31:12.508Z,9.90
2024-03-01T10:33:54.252Z,10.55
2024-03-01T10:36:30.988Z,9.40
2024-03-01T10:39:05.144Z,9.98
2024-03-01T10:41:49.564Z,9.57
2024-03-01T10:44:22.707Z,9.35
2024-03-01T10:46:56.789Z,10.15
2024-03-01T10:49:30.991Z,9.05
2024-03-01T10:52:04.016Z,10.00
2024-03-01T10:54:35.818Z,9.77
2024-03-01T10:57:09.329Z,10.48
2024-03-01T10:59:48.906Z,10.52
2024-03-01T11:02:22.096Z,9.98
2024-03-01T11:05:03.963Z,9.10
2024-03-01T11:07:44.984Z,9.63
2024-03-01T11:10:21.975Z,10.07
2024-03-01T11:12:53.684Z,9.60
2024-03-01T11:15:22.653Z,9.65
2024-03-01T11:17:52.229Z,9.43
2024-03-01T11:20:23.990Z,10.25
2024-03-01T11:23:00.511Z,9.82
2024-03-01T11:25:36.987Z,10.93
2024-03-01T11:28:06.773Z,10.90
2024-03-01T11:30:46.586Z,10.10
2024-03-01T11:33:17.364Z,10.25
2024-03-01T11:35:48.924Z,10.13
2024-03-01T11:38:28.115Z,10.50
2024-03-01T11:41:11.262Z,10.68
2024-03-01T11:43:52.174Z,10.50
2024-03-01T11:46:36.886Z,9.50
2024-03-01T11:49:17.935Z,10.80
2024-03-01T11:51:59.994Z,10.63
2024-03-01T11:54:48.999Z,10.40
2024-03-01T11:57:31.515Z,9.80
2024-03-01T12:00:13.168Z,10.52
2024-03-01T12:03:06.425Z,10.02
2024-03-01T12:05:51.075Z,8.95
2024-03-01T12:08:35.687Z,9.65
2024-03-01T12:11:17.397Z,10.20
2024-03-01T12:13:54.464Z,10.25
2024-03-01T12:16:35.160Z,10.00
2024-03-01T12:19:15.149Z,9.77
2024-03-01T12:22:01.379Z,9.85
2024-03-01T12:24:38.243Z,9.98
2024-03-01T12:27:13.472Z,10.02
2024-03-01T12:29:51.857Z,9.88
2024-03-01T12:32:26.680Z,8.52
2024-03-01T12:35:10.828Z,9.25
2024-03-01T12:37:51.218Z,10.00
2024-03-01T12:40:21.573Z,9.77
2024-03-01T12:43:21.651Z,8.98
2024-03-01T12:46:23.641Z,9.77
2024-03-01T12:49:00.327Z,10.07
2024-03-01T12:51:32.234Z,9.13
2024-03-01T12:54:03.967Z,9.73
2024-03-01T12:56:49.784Z,9.77
2024-03-01T12:59:34.793Z,9.48
2024-03-01T13:02:32.612Z,10.27
2024-03-01T13:05:14.531Z,9.48
2024-03-01T13:07:43.367Z,10.65
2024-03-01T13:10:15.296Z,9.73
2024-03-01T13:12:46.932Z,10.45
2024-03-01T13:15:19.635Z,9.90
2024-03-01T13:18:01.937Z,11.38
2024-03-01T13:20:32.036Z,10.13
2024-03-01T13:23:20.943Z,11.32
2024-03-01T13:26:07.509Z,9.80
2024-03-01T13:28:41.898Z,11.00
2024-03-01T13:31:16.458Z,10.55
2024-03-01T13:33:48.278Z,9.00
2024-03-01T13:36:24.825Z,9.73
2024-03-01T13:39:11.656Z,9.85
2024-03-01T13:41:41.810Z,10.18
2024-03-01T13:44:24.249Z,9.95
2024-03-01T13:46:58.899Z,10.63
2024-03-01T13:49:38.210Z,10.90
2024-03-01T13:52:08.797Z,10.60
2024-03-01T13:54:37.453Z,10.73
2024-03-01T13:57:07.635Z,10.70
2024-03-01T13:59:37.057Z,10.55
2024-03-01T14:02:06.001Z,10.93
2024-03-01T14:04:34.521Z,12.75
2024-03-01T14:07:02.586Z,11.40
2024-03-01T14:09:30.667Z,11.70
2024-03-01T14:11:58.878Z,10.70
2024-03-01T14:14:27.239Z,11.52
2024-03-01T14:16:59.305Z,11.32
2024-03-01T14:19:27.574Z,11.00
2024-03-01T14:21:57.994Z,11.02
2024-03-01T14:24:26.698Z,12.40
2024-03-01T14:26:54.843Z,11.00
2024-03-01T14:29:22.934Z,12.00
2024-03-01T14:32:11.132Z,10.88
2024-03-01T14:34:40.321Z,10.57
2024-03-01T14:37:11.167Z,9.65
2024-03-01T14:39:40.523Z,10.65
2024-03-01T14:42:18.208Z,10.40
2024-03-01T14:44:46.590Z,10.98
2024-03-01T14:47:16.012Z,9.60
2024-03-01T14:49:44.387Z,10.00
2024-03-01T14:52:13.510Z,10.07
2024-03-01T14:54:41.710Z,10.38
2024-03-01T14:57:09.758Z,10.88
2024-03-01T14:59:38.553Z,9.88
2024-03-01T15:02:06.593Z,10.13
2024-03-01T15:04:36.053Z,9.55
2024-03-01T15:07:05.570Z,8.98
2024-03-01T15:09:45.095Z,9.80
2024-03-01T15:12:13.784Z,10.65
2024-03-01T15:14:41.775Z,10.70
2024-03-01T15:17:10.059Z,9.63
2024-03-01T15:19:44.130Z,9.95
2024-03-01T15:22:13.745Z,9.90
2024-03-01T15:24:42.113Z,9.68
2024-03-01T15:27:10.038Z,9.65
2024-03-01T15:29:38.000Z,9.88
2024-03-01T15:32:07.557Z,9.68
2024-03-01T15:34:35.500Z,10.35
2024-03-01T15:37:05.076Z,11.02
2024-03-01T15:39:33.216Z,10.57
2024-03-01T15:42:01.210Z,14.07
2024-03-01T15:44:29.101Z,12.40
2024-03-01T15:46:57.269Z,10.18
2024-03-01T15:49:25.245Z,12.15
2024-03-01T15:51:54.488Z,10.43
2024-03-01T15:54:24.050Z,10.45
2024-03-01T15:56:51.904Z,13.45
2024-03-01T15:59:19.809Z,12.20
2024-03-01T16:01:48.018Z,12.88
2024-03-01T16:04:16.623Z,10.70
2024-03-01T16:06:44.672Z,11.07
2024-03-01T16:09:13.054Z,10.77
2024-03-01T16:11:44.019Z,9.88
2024-03-01T16:14:13.189Z,10.57
2024-03-01T16:16:42.185Z,10.02
2024-03-01T16:19:11.029Z,9.90
2024-03-01T16:21:40.278Z,10.82
2024-03-01T16:24:10.402Z,11.48
2024-03-01T16:26:38.837Z,10.10
2024-03-01T16:29:09.107Z,9.98
2024-03-01T16:31:37.360Z,9.63
2024-03-01T16:34:05.849Z,10.00
2024-03-01T16:36:33.839Z,10.63
2024-03-01T16:39:02.379Z,10.07
2024-03-01T16:41:40.166Z,9.85
2024-03-01T16:44:24.676Z,9.73
2024-03-01T16:46:52.742Z,10.93
2024-03-01T16:49:37.268Z,11.02
2024-03-01T16:52:07.736Z,10.00
2024-03-01T16:54:36.331Z,10.27
2024-03-01T16:57:08.711Z,10.30
2024-03-01T16:59:39.567Z,10.35
2024-03-01T17:02:21.117Z,10.57
2024-03-01T17:05:13.359Z,10.60
2024-03-01T17:08:01.589Z,8.82
2024-03-01T17:22:30.779Z,10.65
2024-03-01T17:24:58.929Z,10.88
2024-03-01T17:27:26.898Z,10.68
2024-03-01T17:29:54.957Z,9.38
2024-03-01T17:32:23.549Z,9.25
2024-03-01T17:34:51.517Z,10.43
2024-03-01T17:37:20.824Z,10.85
2024-03-01T17:39:50.396Z,10.55
2024-03-01T17:42:19.057Z,10.52
2024-03-01T17:44:47.428Z,10.13
2024-03-01T17:47:15.669Z,10.20
2024-03-01T17:49:43.916Z,8.32
2024-03-01T17:52:12.315Z,8.82
2024-03-01T17:54:40.730Z,10.48
2024-03-01T17:57:12.363Z,10.07
2024-03-01T17:59:40.868Z,11.05
2024-03-01T18:02:08.969Z,11.60
2024-03-01T18:04:39.612Z,10.35
2024-03-01T18:07:07.770Z,10.98
2024-03-01T18:09:35.944Z,10.45
2024-03-01T18:12:04.609Z,10.52
2024-03-01T18:14:34.440Z,10.68
2024-03-01T18:17:02.857Z,10.52
2024-03-01T18:19:31.342Z,10.77
2024-03-01T18:22:01.227Z,10.65
2024-03-01T18:24:31.985Z,10.77
2024-03-01T18:27:00.306Z,9.98
2024-03-01T18:29:30.584Z,10.88
2024-03-01T18:32:01.313Z,10.73
2024-03-01T18:34:29.569Z,11.07
2024-03-01T18:36:57.614Z,9.68
2024-03-01T18:39:25.698Z,10.40
2024-03-01T18:41:53.933Z,11.32
2024-03-01T18:44:21.986Z,11.77
2024-03-01T18:46:50.059Z,9.38
2024-03-01T18:49:20.123Z,10.27
2024-03-01T18:51:48.166Z,10.20
2024-03-01T18:54:16.238Z,10.32
2024-03-01T18:56:44.694Z,9.68
2024-03-01T18:59:14.973Z,9.90
2024-03-01T19:01:43.275Z,9.95
2024-03-01T19:04:11.826Z,9.82
2024-03-01T19:06:41.218Z,10.10
2024-03-01T19:09:09.211Z,10.15
2024-03-01T19:11:37.717Z,10.38
2024-03-01T19:14:06.970Z,10.50
2024-03-01T19:16:35.094Z,11.88
2024-03-01T19:19:04.465Z,11.12
2024-03-01T19:21:32.779Z,11.38
2024-03-01T19:24:02.212Z,12.05
2024-03-01T19:26:30.411Z,10.70
2024-03-01T19:29:00.008Z,11.15
2024-03-01T19:31:28.117Z,10.43
2024-03-01T19:33:56.853Z,12.27
2024-03-01T19:36:24.899Z,11.55
2024-03-01T19:38:53.028Z,11.50
2024-03-01T19:41:22.660Z,11.65
2024-03-01T19:43:50.716Z,11.98
2024-03-01T19:46:18.869Z,11.75
2024-03-01T19:48:48.474Z,11.32
2024-03-01T19:51:17.280Z,11.50
2024-03-01T19:53:45.267Z,12.50
2024-03-01T19:56:13.708Z,11.38
2024-03-01T19:58:43.014Z,11.90
2024-03-01T20:01:11.100Z,10.93
2024-03-01T20:03:39.441Z,11.93
2024-03-01T20:06:07.477Z,12.43
2024-03-01T20:08:35.635Z,11.40
2024-03-01T20:11:05.697Z,11.70
2024-03-01T20:13:33.771Z,11.75
2024-03-01T20:16:03.215Z,10.98
2024-03-01T20:18:31.544Z,11.68
2024-03-01T20:21:00.363Z,10.23
2024-03-01T20:23:30.563Z,11.80
2024-03-01T20:26:00.348Z,10.57
2024-03-01T20:28:28.350Z,12.50
2024-03-01T20:30:56.437Z,12.30
2024-03-01T20:33:26.210Z,11.57
2024-03-01T20:35:54.680Z,11.45
2024-03-01T20:38:23.082Z,11.15
2024-03-01T20:40:52.941Z,13.13
2024-03-01T20:43:21.448Z,12.15
2024-03-01T20:45:49.824Z,11.45
2024-03-01T20:48:18.044Z,12.48
2024-03-01T20:50:48.029Z,11.12
2024-03-01T20:53:15.966Z,10.70
2024-03-01T20:55:44.230Z,11.88
2024-03-01T20:58:14.025Z,12.43
2024-03-01T21:00:42.166Z,12.20
2024-03-01T21:03:10.459Z,10.00
2024-03-01T21:05:38.449Z,10.00
2024-03-01T21:08:08.705Z,12.37
2024-03-01T21:10:37.643Z,10.65
2024-03-01T21:13:08.348Z,11.75
2024-03-01T21:15:36.692Z,9.82
2024-03-01T21:18:06.090Z,9.52
2024-03-01T21:20:34.501Z,9.90
2024-03-01T21:23:02.813Z,8.63
2024-03-01T21:25:32.221Z,10.57
2024-03-01T21:28:00.264Z,10.35
2024-03-01T21:30:29.546Z,10.77
2024-03-01T21:33:00.482Z,10.38
2024-03-01T21:35:28.889Z,10.00
2024-03-01T21:37:57.105Z,10.43
2024-03-01T21:40:25.834Z,10.02
2024-03-01T21:42:55.478Z,9.65
2024-03-01T21:45:23.747Z,10.63
2024-03-01T21:47:51.834Z,11.45
2024-03-01T21:50:20.309Z,10.75
2024-03-01T21:52:49.647Z,11.60
2024-03-01T21:55:19.266Z,12.37
2024-03-01T21:57:47.829Z,11.43
2024-03-01T22:00:17.850Z,12.02
2024-03-01T22:02:46.213Z,11.80
2024-03-01T22:05:14.330Z,11.10
2024-03-01T22:07:45.059Z,11.85
2024-03-01T22:10:15.558Z,12.48
2024-03-01T22:12:43.763Z,10.15
2024-03-01T22:15:12.024Z,10.52
2024-03-01T22:17:41.670Z,12.75
2024-03-01T22:20:10.792Z,11.25
2024-03-01T22:22:38.864Z,12.93
2024-03-01T22:25:08.025Z,11.48
2024-03-01T22:27:36.664Z,11.75
2024-03-01T22:30:07.366Z,10.80
2024-03-01T22:32:35.927Z,11.20
2024-03-01T22:35:05.932Z,9.88
2024-03-01T22:37:37.804Z,11.80
2024-03-01T22:40:07.515Z,11.38
2024-03-01T22:42:36.866Z,11.30
2024-03-01T22:45:06.187Z,10.68
2024-03-01T22:47:34.540Z,11.35
2024-03-01T22:50:02.817Z,12.43
2024-03-01T22:52:33.883Z,11.65
2024-03-01T22:55:02.517Z,10.82
2024-03-01T22:57:37.578Z,11.45
2024-03-01T23:00:20.446Z,12.40
2024-03-01T23:02:52.101Z,11.18
2024-03-01T23:05:48.609Z,12.02
2024-03-01T23:08:40.981Z,12.48
2024-03-01T23:11:34.649Z,12.00
2024-03-01T23:14:04.245Z,13.77
2024-03-01T23:16:32.567Z,12.52
2024-03-01T23:19:00.927Z,11.60
2024-03-01T23:21:29.294Z,11.20
2024-03-01T23:23:59.523Z,11.57
2024-03-01T23:26:27.621Z,12.27
2024-03-01T23:28:55.936Z,11.55
2024-03-01T23:31:24.251Z,12.55
2024-03-01T23:33:52.658Z,13.02
2024-03-01T23:36:20.720Z,11.52
2024-03-01T23:38:51.832Z,12.45
2024-03-01T23:41:21.314Z,11.20
2024-03-01T23:43:49.557Z,10.93
2024-03-01T23:46:17.657Z,12.15
2024-03-01T23:48:45.747Z,10.77
2024-03-01T23:51:14.176Z,10.52
2024-03-01T23:53:43.061Z,10.93
2024-03-01T23:56:11.173Z,10.55
2024-03-01T23:58:41.835Z,11.63
